Terminal Aerodrome Forecast
Issued by NWS

Home | Current Version | Previous Version | Text Only | Print | Product List | Glossary On
Versions: 1 2 3 4 5 6 7 8 9 10 11 12 13 14 15 16 17 18 19 20 21 22
000
FTUS43 KDMX 281127
TAFFOD
TAF
KFOD 281127Z 2812/2912 VRB03KT 1/4SM FG OVC002
      TEMPO 2813/2814 2SM BR OVC006
     FM281400 05004KT 4SM BR SCT007
     FM281530 06005KT P6SM SCT007
     FM281900 08007KT P6SM OVC025
     FM291000 09009G14KT P6SM VCSH SCT009 OVC020=

USA.gov is the U.S. government's official web portal to all federal, state and local government web resources and services.